Latest Weather Observations for Davis (Whoop Whoop)*

IDT60801

Issued at 9:05 pm EST Wednesday 17 September 2014 (issued every 30 minutes, with the page automatically refreshed every 10 minutes)

About weather observations | Map of weather stations | Latest weather observations for ANT | Other Formats
Station Details ID: 300055 Name: DAVIS (WHOOP WHOOP) Lat: -68.48 Lon: 78.82 Height: 545.0 m
Data from the previous 72 hours. | See also: Recent months for locations in Antarctica
Date/Time
EST
Temp
°C
App
Temp
°C
Dew
Point
Rel
Hum
%
Delta-T
°C
Wind Press
QNH
hPa
Press
MSL
hPa
Rain
since 9 am
mm
Dir
 
Spd
km/h
Gust
km/h
Spd
kts
Gust
kts
17/09:00pm -10.0 -24.6 -14.8 68 - E 59 72 32 39 970.1 - -
17/08:30pm -10.1 -24.1 -14.9 68 - E 56 65 30 35 970.4 - -
17/08:00pm -10.2 -22.7 -14.8 69 - E 48 59 26 32 970.8 - -
17/07:30pm -10.0 -22.1 -14.8 68 - E 46 54 25 29 971.3 - -
17/07:00pm -9.6 -21.1 -14.6 67 - E 43 52 23 28 971.8 - -
17/06:30pm -9.8 -21.9 -15.1 65 - E 46 57 25 31 971.9 - -
17/06:00pm -9.9 -21.4 -15.0 66 - E 43 54 23 29 971.7 - -
17/05:30pm -10.3 -21.9 -15.6 65 - E 43 50 23 27 972.0 - -
17/05:00pm -10.1 -23.4 -15.2 66 - E 52 63 28 34 972.1 - -
17/04:30pm -9.8 -23.4 -14.9 66 - E 54 63 29 34 972.2 - -
17/04:00pm -10.2 -23.1 -15.1 67 - E 50 65 27 35 972.4 - -
17/03:30pm -10.1 -23.0 -15.6 64 - E 50 59 27 32 973.2 - -
17/03:00pm -10.5 -23.8 -15.4 67 - E 52 61 28 33 973.4 - -
17/02:30pm -10.9 -23.8 -15.8 67 - E 50 59 27 32 973.8 - -
17/02:00pm -11.2 -24.5 -15.7 69 - E 52 65 28 35 974.0 - -
17/01:30pm -11.5 -24.8 -16.4 67 - E 52 63 28 34 973.9 - -
17/01:00pm -12.0 -26.1 -16.5 69 - E 56 65 30 35 974.0 - -
17/12:30pm -12.3 -27.4 -17.3 66 - E 61 72 33 39 974.1 - -
17/12:00pm -12.3 -27.0 -17.7 64 - E 59 69 32 37 974.2 - -
17/11:30am -12.7 -27.8 -17.7 66 - E 61 70 33 38 974.0 - -
17/11:00am -12.7 -27.4 -17.7 66 - E 59 69 32 37 974.2 - -
17/10:30am -12.8 -27.5 -18.0 65 - E 59 69 32 37 974.8 - -
17/10:00am -12.8 -27.5 -18.2 64 - E 59 76 32 41 975.4 - -
17/09:58am -12.8 -27.1 -18.2 64 - E 57 76 31 41 975.2 - -
17/09:30am -13.0 -27.3 -18.0 66 - E 57 70 31 38 975.8 - -
17/09:00am -13.1 -27.8 -18.3 65 - E 59 69 32 37 976.1 - -
17/08:30am -13.4 -27.8 -18.4 66 - E 57 65 31 35 976.1 - -
17/08:00am -13.8 -28.6 -18.8 66 - E 59 72 32 39 976.5 - -
17/07:30am -13.8 -28.2 -18.6 67 - E 57 67 31 36 977.0 - -
17/07:03am -13.6 -27.4 -18.4 67 - E 54 76 29 41 977.0 - -
17/07:00am -13.7 -27.5 -18.3 68 - E 54 67 29 36 977.6 - -
17/06:30am -13.8 -27.2 -18.2 69 - E 52 67 28 36 977.6 - -
17/06:00am -14.1 -26.4 -18.5 69 - E 46 57 25 31 977.9 - -
17/05:30am -14.1 -27.1 -17.9 73 - E 50 59 27 32 978.2 - -
17/05:00am -13.9 -28.1 -18.8 66 - E 56 65 30 35 977.8 - -
17/04:30am -14.5 -26.8 -19.2 67 - E 46 54 25 29 978.9 - -
17/03:30am -14.0 -26.3 -19.1 65 - E 46 57 25 31 979.4 - -
17/03:00am -14.0 -26.7 -19.1 65 - E 48 56 26 30 979.7 - -
17/02:30am -13.6 -26.3 -18.9 64 - E 48 57 26 31 980.0 - -
17/02:00am -13.6 -26.3 -18.7 65 - E 48 54 26 29 980.0 - -
17/01:30am -13.9 -27.3 -18.8 66 - E 52 63 28 34 980.1 - -
17/01:00am -13.7 -27.5 -18.7 66 - E 54 61 29 33 980.7 - -
17/12:30am -13.8 -27.6 -19.1 64 - E 54 63 29 34 980.6 - -
17/12:00am -13.5 -27.7 -18.8 64 - E 56 65 30 35 981.0 - -
 
Date/Time
EST
Temp
°C
App
Temp
°C
Dew
Point
Rel
Hum
%
Delta-T
°C
Wind Press
QNH
hPa
Press
MSL
hPa
Rain
since 9 am
mm
Dir
 
Spd
km/h
Gust
km/h
Spd
kts
Gust
kts
16/11:30pm -13.4 -27.8 -18.9 63 - E 57 69 31 37 981.0 - -
16/11:00pm -13.4 -27.8 -19.5 60 - E 57 65 31 35 981.2 - -
16/10:30pm -13.6 -28.0 -20.1 58 - E 57 67 31 36 981.6 - -
16/10:00pm -13.5 -27.7 -20.4 56 - E 56 63 30 34 981.2 - -
16/09:30pm -13.2 -28.0 -20.1 56 - E 59 70 32 38 981.6 - -
16/09:00pm -12.9 -27.7 -19.8 56 - E 59 69 32 37 981.9 - -
16/08:30pm -12.4 -26.8 -19.3 56 - E 57 67 31 36 982.3 - -
16/07:30pm -12.6 -26.8 -18.9 59 - E 56 69 30 37 982.8 - -
16/06:30pm -11.7 -26.1 -18.3 58 - E 57 69 31 37 982.6 - -
16/06:00pm -11.7 -26.8 -18.3 58 - E 61 70 33 38 982.8 - -
16/05:30pm -11.3 -25.7 -18.3 56 - E 57 72 31 39 982.7 - -
16/05:00pm -10.9 -25.0 -17.1 60 - E 56 67 30 36 983.0 - -
16/04:30pm -11.0 -24.3 -16.6 63 - E 52 61 28 33 983.0 - -
16/04:00pm -11.0 -24.0 -16.8 62 - E 50 59 27 32 983.1 - -
16/03:30pm -10.8 -24.9 -17.0 60 - E 56 65 30 35 982.8 - -
16/03:00pm -10.6 -23.9 -16.6 61 - E 52 63 28 34 983.0 - -
16/02:30pm -10.5 -25.5 -16.3 62 - E 61 72 33 39 982.8 - -
16/02:05pm -10.4 -23.7 -16.3 62 - ENE 52 70 28 38 982.8 - -
16/02:00pm -10.4 -22.6 -15.9 64 - ENE 46 61 25 33 983.0 - -
16/01:30pm -10.4 -22.0 -15.7 65 - ENE 43 54 23 29 983.4 - -
16/01:00pm -10.8 -24.0 -15.0 71 - ENE 52 61 28 33 983.1 - -
16/12:30pm -11.2 -23.3 -15.4 71 - E 46 54 25 29 983.0 - -
16/12:00pm -11.8 -24.8 -17.0 65 - E 50 57 27 31 983.0 - -
16/11:30am -11.9 -23.8 -17.9 61 - E 44 54 24 29 983.1 - -
16/11:00am -11.3 -23.0 -17.5 60 - E 43 52 23 28 983.1 - -
16/10:30am -11.4 -23.3 -17.8 59 - E 44 54 24 29 983.2 - -
16/10:00am -11.8 -24.0 -18.0 60 - E 46 56 25 30 983.5 - -
16/09:30am -11.7 -24.7 -18.3 58 - E 50 59 27 32 983.2 - -
16/09:00am -11.8 -24.1 -18.6 57 - E 46 56 25 30 983.6 - -
16/08:30am -12.3 -24.9 -18.4 60 - E 48 56 26 30 983.4 - -
16/08:00am -12.4 -24.7 -18.5 60 - E 46 54 25 29 983.8 - -
16/07:30am -12.6 -26.0 -19.1 58 - E 52 61 28 33 983.6 - -
16/07:00am -12.6 -26.4 -18.9 59 - E 54 63 29 34 983.6 - -
16/06:30am -12.9 -26.3 -19.2 59 - E 52 59 28 32 983.8 - -
16/05:30am -12.7 -25.4 -18.8 60 - E 48 54 26 29 984.2 - -
16/05:00am -12.5 -25.2 -18.8 59 - E 48 59 26 32 983.8 - -
16/04:30am -12.3 -25.0 -18.8 58 - E 48 56 26 30 984.0 - -
16/04:00am -12.0 -23.9 -18.0 61 - E 44 50 24 27 983.9 - -
16/03:30am -11.9 -23.6 -17.7 62 - E 43 52 23 28 984.3 - -
16/03:00am -12.2 -23.1 -18.0 62 - E 39 44 21 24 984.5 - -
16/02:30am -12.0 -22.9 -18.0 61 - E 39 48 21 26 984.5 - -
16/02:00am -12.1 -22.6 -17.9 62 - E 37 43 20 23 984.7 - -
16/01:30am -12.1 -23.4 -17.5 64 - E 41 46 22 25 984.9 - -
16/01:00am -12.4 -23.6 -16.5 71 - E 41 48 22 26 984.9 - -
16/12:30am -12.5 -23.4 -16.6 71 - E 39 48 21 26 985.0 - -
16/12:00am -12.3 -22.0 -16.6 70 - E 33 39 18 21 985.2 - -
 
Date/Time
EST
Temp
°C
App
Temp
°C
Dew
Point
Rel
Hum
%
Delta-T
°C
Wind Press
QNH
hPa
Press
MSL
hPa
Rain
since 9 am
mm
Dir
 
Spd
km/h
Gust
km/h
Spd
kts
Gust
kts
15/11:30pm -12.2 -21.7 -16.4 71 - E 32 37 17 20 985.3 - -
15/11:00pm -12.9 -20.5 -16.7 73 - ESE 22 26 12 14 985.4 - -
15/10:30pm -13.0 -21.4 -16.5 75 - ESE 26 32 14 17 985.7 - -
15/10:00pm -12.6 -21.7 -15.9 76 - E 30 35 16 19 985.7 - -
15/09:30pm -12.6 -22.1 -16.2 74 - E 32 37 17 20 985.9 - -
15/09:00pm -12.4 -22.9 -17.1 68 - E 37 46 20 25 986.1 - -
15/08:30pm -12.0 -22.5 -17.2 65 - E 37 44 20 24 986.3 - -
15/08:00pm -12.2 -21.4 -17.6 64 - E 30 35 16 19 986.4 - -
15/07:30pm -12.3 -22.5 -18.1 62 - E 35 41 19 22 986.2 - -
15/07:00pm -12.5 -21.4 -18.6 60 - E 28 43 15 23 986.3 - -
15/06:30pm -12.5 -23.4 -18.4 61 - E 39 48 21 26 986.3 - -
15/06:00pm -12.6 -23.2 -18.7 60 - E 37 46 20 25 986.3 - -
15/05:30pm -13.1 -25.4 -19.4 59 - E 46 56 25 30 986.1 - -
15/05:00pm -13.1 -25.8 -19.4 59 - E 48 57 26 31 985.6 - -
15/04:30pm -12.9 -27.1 -19.2 59 - E 56 67 30 36 985.3 - -
15/04:00pm -13.2 -28.0 -19.5 59 - E 59 69 32 37 984.8 - -
15/03:30pm -13.2 -28.0 -19.7 58 - E 59 70 32 38 984.9 - -
15/03:00pm -13.5 -28.3 -20.6 55 - E 59 69 32 37 984.9 - -
15/02:30pm -13.5 -28.3 -20.2 57 - E 59 72 32 39 985.1 - -
15/02:00pm -14.0 -27.9 -20.8 56 - ENE 54 65 29 35 985.1 - -
15/01:30pm -14.2 -28.6 -20.8 57 - ENE 57 67 31 36 984.9 - -
15/01:00pm -14.4 -28.6 -20.6 59 - E 56 65 30 35 984.9 - -
15/12:30pm -14.4 -27.5 -21.0 57 - ENE 50 61 27 33 985.0 - -
15/12:00pm -14.3 -27.4 -20.1 61 - E 50 59 27 32 984.9 - -
15/11:30am -14.1 -27.2 -20.0 61 - ENE 50 59 27 32 984.8 - -
15/11:00am -14.4 -27.1 -19.7 64 - ENE 48 57 26 31 984.8 - -
15/10:30am -15.3 -27.2 -20.0 67 - ENE 44 54 24 29 984.9 - -
15/10:00am -16.0 -28.4 -21.0 65 - E 46 54 25 29 984.7 - -
15/09:30am -15.9 -28.3 -21.3 63 - E 46 54 25 29 984.7 - -
15/09:00am -15.2 -27.6 -20.8 62 - E 46 54 25 29 984.7 - -
15/08:30am -14.6 -27.3 -20.2 62 - E 48 57 26 31 984.6 - -
15/08:00am -14.3 -26.2 -20.0 62 - E 44 52 24 28 984.6 - -
15/07:30am -14.8 -27.5 -20.1 64 - E 48 56 26 30 983.9 - -

Other Formats:

Comma delimited format used in spreadsheet applications
http://www.bom.gov.au/fwo/IDT60803/IDT60803.89570.axf

JavaScript Object Notation format (JSON) in row-major order
http://www.bom.gov.au/fwo/IDT60803/IDT60803.89570.json